createdAt,value
2022-11-14T00:00:30.284Z,96.46
2022-11-14T00:03:15.441Z,96.25
2022-11-14T00:06:00.285Z,96.12
2022-11-14T00:08:45.116Z,97.21
2022-11-14T00:11:30.032Z,99.34
2022-11-14T00:14:14.771Z,99.46
2022-11-14T00:16:59.681Z,99.58
2022-11-14T00:19:44.508Z,98.92
2022-11-14T00:22:29.433Z,98.12
2022-11-14T00:25:14.240Z,98.64
2022-11-14T00:27:59.672Z,98.59
2022-11-14T00:30:48.172Z,97.66
2022-11-14T00:33:33.407Z,97.62
2022-11-14T00:36:18.360Z,97.83
2022-11-14T00:39:03.942Z,97.63
2022-11-14T00:41:49.192Z,97.35
2022-11-14T00:44:34.172Z,97.73
2022-11-14T00:47:19.442Z,97.17
2022-11-14T00:50:05.004Z,97.71
2022-11-14T00:52:49.789Z,97.93
2022-11-14T00:55:34.881Z,97.70
2022-11-14T00:58:19.973Z,98.79
2022-11-14T01:01:05.151Z,98.50
2022-11-14T01:03:50.845Z,98.46
2022-11-14T01:06:35.733Z,97.36
2022-11-14T01:09:20.869Z,96.98
2022-11-14T01:12:05.677Z,96.62
2022-11-14T01:14:50.895Z,97.70
2022-11-14T01:17:35.783Z,97.56
2022-11-14T01:20:20.761Z,96.85
2022-11-14T01:23:07.655Z,96.77
2022-11-14T01:25:52.890Z,97.84
2022-11-14T01:28:38.384Z,98.17
2022-11-14T01:31:24.379Z,98.46
2022-11-14T01:34:09.772Z,98.35
2022-11-14T01:36:54.721Z,99.33
2022-11-14T01:39:39.868Z,99.00
2022-11-14T01:42:27.334Z,98.58
2022-11-14T01:45:31.454Z,96.30
2022-11-14T01:48:25.456Z,96.15
2022-11-14T01:51:28.533Z,96.50
2022-11-14T01:54:34.752Z,95.83
2022-11-14T01:57:33.457Z,95.85
2022-11-14T02:00:18.787Z,95.31
2022-11-14T02:03:04.107Z,95.70
2022-11-14T02:05:49.783Z,96.29
2022-11-14T02:08:35.176Z,96.51
2022-11-14T02:11:20.303Z,97.03
2022-11-14T02:14:06.037Z,95.14
2022-11-14T02:17:07.708Z,96.14
2022-11-14T02:20:04.809Z,97.02
2022-11-14T02:22:50.370Z,97.41
2022-11-14T02:25:35.424Z,97.72
2022-11-14T02:28:21.653Z,98.18
2022-11-14T02:31:06.933Z,97.75
2022-11-14T02:33:51.604Z,97.78
2022-11-14T02:36:36.423Z,98.00
2022-11-14T02:39:21.269Z,98.11
2022-11-14T02:42:06.285Z,98.98
2022-11-14T02:44:51.161Z,98.72
2022-11-14T02:47:36.258Z,98.37
2022-11-14T02:50:21.196Z,98.52
2022-11-14T02:53:06.153Z,96.34
2022-11-14T02:55:51.366Z,97.35
2022-11-14T02:58:36.094Z,96.67
2022-11-14T03:01:21.764Z,97.09
2022-11-14T03:04:07.225Z,97.45
2022-11-14T03:06:52.255Z,98.57
2022-11-14T03:09:37.477Z,98.62
2022-11-14T03:12:22.485Z,98.63
2022-11-14T03:15:07.750Z,98.21
2022-11-14T03:17:52.785Z,98.68
2022-11-14T03:20:37.741Z,99.09
2022-11-14T03:23:22.521Z,99.31
2022-11-14T03:26:08.716Z,99.27
2022-11-14T03:28:55.287Z,100.00
2022-11-14T03:31:40.166Z,99.24
2022-11-14T03:34:25.144Z,99.28
2022-11-14T03:37:09.991Z,99.60
2022-11-14T03:39:55.321Z,99.75
2022-11-14T03:42:40.186Z,99.53
2022-11-14T03:45:24.933Z,99.37
2022-11-14T03:48:10.043Z,99.35
2022-11-14T03:50:55.218Z,98.90
2022-11-14T03:53:40.074Z,100.00
2022-11-14T03:56:24.893Z,99.48
2022-11-14T03:59:10.046Z,97.24
2022-11-14T04:01:54.932Z,97.12
2022-11-14T04:04:39.948Z,97.61
2022-11-14T04:07:24.833Z,98.72
2022-11-14T04:10:09.762Z,98.42
2022-11-14T04:12:55.121Z,96.96
2022-11-14T04:15:40.420Z,96.77
2022-11-14T04:18:26.031Z,96.46
2022-11-14T04:21:10.795Z,97.30
2022-11-14T04:23:55.669Z,96.08
2022-11-14T04:26:40.432Z,96.42
2022-11-14T04:29:25.316Z,96.33
2022-11-14T04:32:10.185Z,96.15
2022-11-14T04:34:56.457Z,96.46
2022-11-14T04:37:41.805Z,97.81
2022-11-14T04:40:26.542Z,97.95
2022-11-14T04:43:11.597Z,97.80
2022-11-14T04:45:56.529Z,97.20
2022-11-14T04:48:41.701Z,97.01
2022-11-14T04:51:26.987Z,96.49
2022-11-14T04:54:11.877Z,96.62
2022-11-14T04:56:56.760Z,95.21
2022-11-14T04:59:41.476Z,96.55
2022-11-14T05:02:26.215Z,96.98
2022-11-14T05:05:11.083Z,97.41
2022-11-14T05:07:56.063Z,97.85
2022-11-14T05:10:44.735Z,98.58
2022-11-14T05:13:29.966Z,98.60
2022-11-14T05:16:16.899Z,97.98
2022-11-14T05:19:02.124Z,98.80
2022-11-14T05:21:46.926Z,98.33
2022-11-14T05:24:31.799Z,98.56
2022-11-14T05:27:16.645Z,98.72
2022-11-14T05:30:01.677Z,98.97
2022-11-14T05:32:46.577Z,99.94
2022-11-14T05:35:31.560Z,100.00
2022-11-14T05:38:16.404Z,100.00
2022-11-14T05:41:05.756Z,100.00
2022-11-14T05:43:50.620Z,100.00
2022-11-14T05:46:35.429Z,100.00
2022-11-14T05:49:22.070Z,100.00
2022-11-14T05:52:07.776Z,100.00
2022-11-14T05:54:52.687Z,100.00
2022-11-14T05:57:37.957Z,100.00
2022-11-14T06:00:23.041Z,100.00
2022-11-14T06:03:08.003Z,100.00
2022-11-14T06:05:52.956Z,100.00
2022-11-14T06:08:38.273Z,97.93
2022-11-14T06:11:23.378Z,98.23
2022-11-14T06:14:10.945Z,98.67
2022-11-14T06:16:56.194Z,98.40
2022-11-14T06:19:41.002Z,98.66
2022-11-14T06:22:25.876Z,98.80
2022-11-14T06:25:10.723Z,99.75
2022-11-14T06:27:55.677Z,99.24
2022-11-14T06:30:41.406Z,98.51
2022-11-14T06:33:27.163Z,98.92
2022-11-14T06:36:12.929Z,98.88
2022-11-14T06:38:57.810Z,99.24
2022-11-14T06:41:42.838Z,98.61
2022-11-14T06:44:30.643Z,98.04
2022-11-14T06:47:16.486Z,97.99
2022-11-14T06:50:01.813Z,99.01
2022-11-14T06:52:46.710Z,100.00
2022-11-14T06:55:31.684Z,100.00
2022-11-14T06:58:16.748Z,100.00
2022-11-14T07:01:10.722Z,100.00
2022-11-14T07:03:58.681Z,100.00
2022-11-14T07:06:43.743Z,99.34
2022-11-14T07:09:28.537Z,100.00
2022-11-14T07:12:13.406Z,99.48
2022-11-14T07:14:58.477Z,99.14
2022-11-14T07:17:43.476Z,98.45
2022-11-14T07:20:28.102Z,96.68
2022-11-14T07:23:13.224Z,95.81
2022-11-14T07:26:02.145Z,95.06
2022-11-14T07:28:52.272Z,96.14
2022-11-14T07:31:38.590Z,95.06
2022-11-14T07:34:23.493Z,94.65
2022-11-14T07:37:08.786Z,94.93
2022-11-14T07:39:53.689Z,93.65
2022-11-14T07:42:38.616Z,92.88
2022-11-14T07:45:23.709Z,92.81
2022-11-14T07:48:08.657Z,91.67
2022-11-14T07:50:53.656Z,92.28
2022-11-14T07:53:38.867Z,92.41
2022-11-14T07:56:25.970Z,93.42
2022-11-14T07:59:10.824Z,91.29
2022-11-14T08:01:55.991Z,92.34
2022-11-14T08:04:41.921Z,92.73
2022-11-14T08:07:27.052Z,92.12
2022-11-14T08:10:14.142Z,93.83
2022-11-14T08:13:25.192Z,93.95
2022-11-14T08:16:12.046Z,92.88
2022-11-14T08:18:58.121Z,93.78
2022-11-14T08:21:43.932Z,93.90
2022-11-14T08:24:28.879Z,93.52
2022-11-14T08:27:13.807Z,92.56
2022-11-14T08:29:58.913Z,92.13
2022-11-14T08:32:43.773Z,90.86
2022-11-14T08:35:29.532Z,91.92
2022-11-14T08:38:14.744Z,89.68
2022-11-14T08:41:01.620Z,88.40
2022-11-14T08:43:46.467Z,87.15
2022-11-14T08:46:31.485Z,87.13
2022-11-14T08:49:16.600Z,87.97
2022-11-14T08:52:01.566Z,88.52
2022-11-14T08:54:46.777Z,87.68
2022-11-14T08:57:32.094Z,85.85
2022-11-14T09:00:17.442Z,87.49
2022-11-14T09:03:07.450Z,85.80
2022-11-14T09:05:53.031Z,87.70
2022-11-14T09:08:37.928Z,86.94
2022-11-14T09:11:22.882Z,83.68
2022-11-14T09:14:07.605Z,77.68
2022-11-14T09:16:52.561Z,78.22
2022-11-14T09:19:37.420Z,76.44
2022-11-14T09:22:22.343Z,74.15
2022-11-14T09:25:07.625Z,73.68
2022-11-14T09:27:52.717Z,75.49
2022-11-14T09:30:38.057Z,75.10
2022-11-14T09:33:23.023Z,71.85
2022-11-14T09:36:09.316Z,73.57
2022-11-14T09:38:54.544Z,73.64
2022-11-14T09:41:45.533Z,70.63
2022-11-14T09:44:40.942Z,69.86
2022-11-14T09:47:41.323Z,64.97
2022-11-14T09:50:28.736Z,62.09
2022-11-14T09:53:20.082Z,67.64
2022-11-14T09:56:05.410Z,69.18
2022-11-14T09:58:50.607Z,66.22
2022-11-14T10:01:35.635Z,68.05
2022-11-14T10:04:26.605Z,69.37
2022-11-14T10:07:14.575Z,67.22
2022-11-14T10:10:22.744Z,66.89
2022-11-14T10:13:10.652Z,63.05
2022-11-14T10:16:05.924Z,62.87
2022-11-14T10:19:00.318Z,66.36
2022-11-14T10:21:55.979Z,66.74
2022-11-14T10:24:50.339Z,67.27
2022-11-14T10:27:43.039Z,64.66
2022-11-14T10:30:43.947Z,64.50
2022-11-14T10:33:44.018Z,69.54
2022-11-14T10:36:29.256Z,70.93
2022-11-14T10:39:26.862Z,71.55
2022-11-14T10:42:14.433Z,68.54
2022-11-14T10:45:17.087Z,71.19
2022-11-14T10:48:17.112Z,66.98
2022-11-14T10:51:05.863Z,68.57
2022-11-14T10:54:09.641Z,66.40
2022-11-14T10:56:57.399Z,70.67
2022-11-14T10:59:43.484Z,72.63
2022-11-14T11:02:47.088Z,72.84
2022-11-14T11:05:44.241Z,67.61
2022-11-14T11:08:48.098Z,65.05
2022-11-14T11:11:33.209Z,61.24
2022-11-14T11:14:19.289Z,58.00
2022-11-14T11:17:21.946Z,56.69
2022-11-14T11:20:22.403Z,61.09
2022-11-14T11:23:18.367Z,56.46
2022-11-14T11:26:09.145Z,55.62
2022-11-14T11:29:02.449Z,56.83
2022-11-14T11:31:47.441Z,57.84
2022-11-14T11:34:33.078Z,57.22
2022-11-14T11:37:20.729Z,59.44
2022-11-14T11:40:06.955Z,58.83
2022-11-14T11:43:40.601Z,58.51
2022-11-14T11:46:18.528Z,57.30
2022-11-14T11:49:11.095Z,58.30
2022-11-14T11:51:58.392Z,57.97
2022-11-14T11:54:50.753Z,58.74
2022-11-14T11:57:38.692Z,57.04
2022-11-14T12:00:23.972Z,57.15
2022-11-14T12:03:14.066Z,56.06
2022-11-14T12:05:59.462Z,56.94
2022-11-14T12:09:01.874Z,55.97
2022-11-14T12:11:51.362Z,56.68
2022-11-14T12:14:36.462Z,55.11
2022-11-14T12:17:30.875Z,54.98
2022-11-14T12:20:35.743Z,55.38
2022-11-14T12:23:20.854Z,53.46
2022-11-14T12:26:25.221Z,53.61
2022-11-14T12:29:40.379Z,54.80
2022-11-14T12:32:31.934Z,54.05
2022-11-14T12:35:23.043Z,55.17
2022-11-14T12:38:14.801Z,54.67
2022-11-14T12:41:00.990Z,55.17
2022-11-14T12:43:47.471Z,54.73
2022-11-14T12:46:52.202Z,55.00
2022-11-14T12:49:52.791Z,54.98
2022-11-14T12:52:43.823Z,54.84
2022-11-14T12:55:28.809Z,56.06
2022-11-14T12:58:32.533Z,55.75
2022-11-14T13:01:27.131Z,57.01
2022-11-14T13:04:21.821Z,56.04
2022-11-14T13:07:36.250Z,57.17
2022-11-14T13:10:31.630Z,57.55
2022-11-14T13:13:35.982Z,57.07
2022-11-14T13:16:44.280Z,56.61
2022-11-14T13:19:48.184Z,57.96
2022-11-14T13:22:38.825Z,58.49
2022-11-14T13:25:24.409Z,57.44
2022-11-14T13:28:28.583Z,56.07
2022-11-14T13:31:16.918Z,60.15
2022-11-14T13:34:21.994Z,60.11
2022-11-14T13:37:16.829Z,61.84
2022-11-14T13:40:04.859Z,63.35
2022-11-14T13:42:55.528Z,61.39
2022-11-14T13:45:59.050Z,61.87
2022-11-14T13:48:58.524Z,63.17
2022-11-14T13:51:44.393Z,64.21
2022-11-14T13:54:29.869Z,66.16
2022-11-14T13:57:28.511Z,65.67
2022-11-14T14:00:20.430Z,65.45
2022-11-14T14:03:25.353Z,66.78
2022-11-14T14:06:13.084Z,68.37
2022-11-14T14:09:04.875Z,68.07
2022-11-14T14:12:02.990Z,68.88
2022-11-14T14:14:48.042Z,69.70
2022-11-14T14:17:42.036Z,71.72
2022-11-14T14:20:27.173Z,71.06
2022-11-14T14:23:28.835Z,71.37
2022-11-14T14:26:21.336Z,71.22
2022-11-14T14:29:19.329Z,72.63
2022-11-14T14:32:14.603Z,75.47
2022-11-14T14:35:00.678Z,75.80
2022-11-14T14:37:50.323Z,77.23
2022-11-14T14:40:37.220Z,76.04
2022-11-14T14:43:31.884Z,76.66
2022-11-14T14:46:25.217Z,79.55
2022-11-14T14:49:10.398Z,81.15
2022-11-14T14:51:58.533Z,82.11
2022-11-14T14:54:53.672Z,82.13
2022-11-14T14:57:39.087Z,82.70
2022-11-14T15:00:29.614Z,81.94
2022-11-14T15:03:14.674Z,82.46
2022-11-14T15:06:01.260Z,83.70
2022-11-14T15:08:46.574Z,84.47
2022-11-14T15:11:32.905Z,86.14
2022-11-14T15:14:20.746Z,87.36
2022-11-14T15:17:06.297Z,88.80
2022-11-14T15:19:52.786Z,90.11
2022-11-14T15:22:39.214Z,92.35
2022-11-14T15:25:24.722Z,91.88
2022-11-14T15:28:20.975Z,93.75
2022-11-14T15:31:06.080Z,95.01
2022-11-14T15:34:05.438Z,94.13
2022-11-14T15:37:05.713Z,92.87
2022-11-14T15:39:51.040Z,93.80
2022-11-14T15:42:36.175Z,93.65
2022-11-14T15:45:25.122Z,94.04
2022-11-14T15:48:15.684Z,95.67
2022-11-14T15:51:00.490Z,96.70
2022-11-14T15:53:49.060Z,95.32
2022-11-14T15:56:34.279Z,96.27
2022-11-14T15:59:19.344Z,95.43
2022-11-14T16:02:11.299Z,93.42
2022-11-14T16:04:57.870Z,92.90
2022-11-14T16:07:43.357Z,93.00
2022-11-14T16:10:28.621Z,91.44
2022-11-14T16:13:13.589Z,92.69
2022-11-14T16:15:58.453Z,92.47
2022-11-14T16:18:43.400Z,92.97
2022-11-14T16:21:28.530Z,92.57
2022-11-14T16:24:18.475Z,93.34
2022-11-14T16:27:03.352Z,93.78
2022-11-14T16:29:48.292Z,93.04
2022-11-14T16:32:33.571Z,93.20
2022-11-14T16:35:26.300Z,92.26
2022-11-14T16:38:13.092Z,92.46
2022-11-14T16:41:00.207Z,92.16
2022-11-14T16:43:45.146Z,90.57
2022-11-14T16:46:30.366Z,87.13
2022-11-14T16:49:15.846Z,86.73
2022-11-14T16:52:05.484Z,87.86
2022-11-14T16:54:50.370Z,90.33
2022-11-14T16:57:37.115Z,91.29
2022-11-14T17:00:22.848Z,91.60
2022-11-14T17:03:08.069Z,93.70
2022-11-14T17:05:53.335Z,93.87
2022-11-14T17:08:38.736Z,94.04
2022-11-14T17:11:24.066Z,94.73
2022-11-14T17:14:08.997Z,94.47
2022-11-14T17:16:56.041Z,95.16
2022-11-14T17:19:46.125Z,95.45
2022-11-14T17:22:31.414Z,95.53
2022-11-14T17:25:16.305Z,95.36
2022-11-14T17:28:01.472Z,95.00
2022-11-14T17:30:46.403Z,94.25
2022-11-14T17:33:31.496Z,94.40
2022-11-14T17:36:17.374Z,94.36
2022-11-14T17:39:02.733Z,94.38
2022-11-14T17:41:48.116Z,95.19
2022-11-14T17:44:33.094Z,94.63
2022-11-14T17:47:18.156Z,95.14
2022-11-14T17:50:03.533Z,95.71
2022-11-14T17:52:48.764Z,96.45
2022-11-14T17:55:34.170Z,96.16
2022-11-14T17:58:19.031Z,95.99
2022-11-14T18:01:08.926Z,95.65
2022-11-14T18:03:55.793Z,96.03
2022-11-14T18:06:40.721Z,96.38
2022-11-14T18:09:26.945Z,95.69
2022-11-14T18:12:12.183Z,95.82
2022-11-14T18:14:57.212Z,95.43
2022-11-14T18:17:42.350Z,94.14
2022-11-14T18:20:27.452Z,94.20
2022-11-14T18:23:12.765Z,94.01
2022-11-14T18:25:57.840Z,95.30
2022-11-14T18:28:42.661Z,94.03
2022-11-14T18:31:28.329Z,95.04
2022-11-14T18:34:13.675Z,96.70
2022-11-14T18:36:58.921Z,95.78
2022-11-14T18:39:43.637Z,94.35
2022-11-14T18:42:28.628Z,95.12
2022-11-14T18:45:13.543Z,97.80
2022-11-14T18:47:58.481Z,98.00
2022-11-14T18:50:43.490Z,97.83
2022-11-14T18:53:32.887Z,98.19
2022-11-14T18:56:19.807Z,99.17
2022-11-14T18:59:05.605Z,99.53
2022-11-14T19:01:51.000Z,98.05
2022-11-14T19:04:36.204Z,98.85
2022-11-14T19:07:20.954Z,97.02
2022-11-14T19:10:06.522Z,97.91
2022-11-14T19:12:51.762Z,96.48
2022-11-14T19:15:36.904Z,97.33
2022-11-14T19:18:22.348Z,97.46
2022-11-14T19:21:07.572Z,97.07
2022-11-14T19:23:54.601Z,98.04
2022-11-14T19:26:39.771Z,97.60
2022-11-14T19:29:25.578Z,97.40
2022-11-14T19:32:10.928Z,97.71
2022-11-14T19:34:55.859Z,97.69
2022-11-14T19:37:41.264Z,96.87
2022-11-14T19:40:26.322Z,96.95
2022-11-14T19:43:11.506Z,96.81
2022-11-14T19:46:00.424Z,97.00
2022-11-14T19:48:45.272Z,97.77
2022-11-14T19:51:31.050Z,97.59
2022-11-14T19:54:16.209Z,97.25
2022-11-14T19:57:01.182Z,97.54
2022-11-14T19:59:46.069Z,98.11
2022-11-14T20:02:31.280Z,98.03
2022-11-14T20:05:16.264Z,99.71
2022-11-14T20:08:01.069Z,99.08
2022-11-14T20:10:59.470Z,99.56
2022-11-14T20:13:44.812Z,99.20
2022-11-14T20:16:31.113Z,98.11
2022-11-14T20:19:16.743Z,98.12
2022-11-14T20:22:01.662Z,98.34
2022-11-14T20:24:46.926Z,97.52
2022-11-14T20:27:31.625Z,98.63
2022-11-14T20:30:16.637Z,99.15
2022-11-14T20:33:05.056Z,99.46
2022-11-14T20:35:50.034Z,99.22
2022-11-14T20:38:35.250Z,99.14
2022-11-14T20:41:21.003Z,99.22
2022-11-14T20:44:06.120Z,99.29
2022-11-14T20:46:51.473Z,99.83
2022-11-14T20:49:36.601Z,100.00
2022-11-14T20:52:21.822Z,100.00
2022-11-14T20:55:11.626Z,99.90
2022-11-14T20:57:57.298Z,99.63
2022-11-14T21:00:42.384Z,100.00
2022-11-14T21:03:27.648Z,99.49
2022-11-14T21:06:13.330Z,99.25
2022-11-14T21:08:58.352Z,100.00
2022-11-14T21:11:43.302Z,100.00
2022-11-14T21:14:28.375Z,100.00
2022-11-14T21:17:13.618Z,100.00
2022-11-14T21:19:58.997Z,100.00
2022-11-14T21:22:44.429Z,100.00
2022-11-14T21:25:29.649Z,100.00
2022-11-14T21:28:14.720Z,100.00
2022-11-14T21:31:00.845Z,100.00
2022-11-14T21:33:46.795Z,100.00
2022-11-14T21:36:47.511Z,100.00
2022-11-14T21:39:32.906Z,100.00
2022-11-14T21:42:18.811Z,100.00
2022-11-14T21:45:04.291Z,100.00
2022-11-14T21:47:49.329Z,100.00
2022-11-14T21:50:34.316Z,100.00
2022-11-14T21:53:19.524Z,100.00
2022-11-14T21:56:11.360Z,100.00
2022-11-14T21:59:12.551Z,100.00
2022-11-14T22:02:16.489Z,100.00
2022-11-14T22:05:01.949Z,100.00
2022-11-14T22:07:47.104Z,100.00
2022-11-14T22:10:32.536Z,100.00
2022-11-14T22:13:17.857Z,100.00
2022-11-14T22:16:06.187Z,100.00
2022-11-14T22:18:54.623Z,100.00
2022-11-14T22:21:39.790Z,100.00
2022-11-14T22:24:24.907Z,100.00
2022-11-14T22:27:09.837Z,100.00
2022-11-14T22:29:54.726Z,100.00
2022-11-14T22:32:40.164Z,100.00
2022-11-14T22:35:25.125Z,100.00
2022-11-14T22:38:10.574Z,100.00
2022-11-14T22:40:56.470Z,100.00
2022-11-14T22:43:41.769Z,100.00
2022-11-14T22:46:27.615Z,100.00
2022-11-14T22:49:16.030Z,100.00
2022-11-14T22:52:03.701Z,100.00
2022-11-14T22:54:48.523Z,100.00
2022-11-14T22:57:33.665Z,100.00
2022-11-14T23:00:18.773Z,100.00
2022-11-14T23:03:04.134Z,100.00
2022-11-14T23:05:49.623Z,100.00
2022-11-14T23:08:34.854Z,100.00
2022-11-14T23:11:21.311Z,100.00
2022-11-14T23:14:06.456Z,100.00
2022-11-14T23:16:51.469Z,100.00
2022-11-14T23:19:36.209Z,100.00
2022-11-14T23:22:21.091Z,100.00
2022-11-14T23:25:06.106Z,100.00
2022-11-14T23:27:51.357Z,100.00
2022-11-14T23:30:36.418Z,100.00
2022-11-14T23:33:21.825Z,100.00
2022-11-14T23:36:07.200Z,100.00
2022-11-14T23:38:53.248Z,100.00
2022-11-14T23:41:38.570Z,100.00
2022-11-14T23:44:23.417Z,100.00
2022-11-14T23:47:08.181Z,100.00
2022-11-14T23:49:53.000Z,100.00
2022-11-14T23:52:37.929Z,100.00
2022-11-14T23:55:22.742Z,100.00
2022-11-14T23:58:08.087Z,100.00
